LFLY/LYN METAR and TAF weather

Enter ICAO airport designator
Station Type Date Time Source
LFLY METAR 2021/05/12 04:30 UTC NOAA

LFLY 120430Z AUTO 06003KT 9000 3200 NSC 07/06 Q1015 TEMPO 4000 BR


Station Type Date Time Source
LFLY Decoded METAR 2021/05/12 04:30 UTC NOAA

Lyon / Bron, France (LFLY) 45-43N 004-57E 201M
May 12, 2021 - 12:30 AM EDT / 2021.05.12 0430 UTC
Wind: from the ENE (060 degrees) at 3 MPH (3 KT):0
Visibility: 5 mile(s):0
Temperature: 44 F (7 C)
Dew Point: 42 F (6 C)
Relative Humidity: 93%
Pressure (altimeter): 29.97 in. Hg (1015 hPa)
ob: LFLY 120430Z AUTO 06003KT 9000 3200 NSC 07/06 Q1015 TEMPO 4000 BR
cycle: 4

Station Type Date Time Source
LFLY TAF 2021/05/11 18:21 UTC NOAA

TAF LFLY 111700Z 1118/1218 34008KT 9999 SCT045
BECMG 1118/1120 VRB03KT PROB30
TEMPO 1120/1123 SHRA PROB40
TEMPO 1203/1207 4000 BR PROB30
TEMPO 1204/1206 2000 MIFG PROB40
TEMPO 1217/1218 VRB10KT SHRA FEW040TCU BKN050

Example: see airport list